createdAt,value
2019-02-19T00:01:01.418Z,38.84
2019-02-19T00:03:33.831Z,38.93
2019-02-19T00:06:05.913Z,38.17
2019-02-19T00:08:38.061Z,38.91
2019-02-19T00:11:10.073Z,38.77
2019-02-19T00:13:42.396Z,39.48
2019-02-19T00:16:14.884Z,38.89
2019-02-19T00:18:46.876Z,38.98
2019-02-19T00:21:18.993Z,39.08
2019-02-19T00:23:51.030Z,38.90
2019-02-19T00:26:23.014Z,38.89
2019-02-19T00:28:55.097Z,38.76
2019-02-19T00:31:27.900Z,38.75
2019-02-19T00:33:59.884Z,38.66
2019-02-19T00:36:31.833Z,39.21
2019-02-19T00:39:03.906Z,38.68
2019-02-19T00:41:35.855Z,39.22
2019-02-19T00:44:07.832Z,38.95
2019-02-19T00:46:39.872Z,39.29
2019-02-19T00:49:11.893Z,38.85
2019-02-19T00:51:43.859Z,39.00
2019-02-19T00:54:15.921Z,39.25
2019-02-19T00:56:47.851Z,39.08
2019-02-19T00:59:19.912Z,38.91
2019-02-19T01:01:52.530Z,38.10
2019-02-19T01:04:24.845Z,39.03
2019-02-19T01:06:57.343Z,39.12
2019-02-19T01:09:29.869Z,38.38
2019-02-19T01:12:01.868Z,39.05
2019-02-19T01:14:33.929Z,39.04
2019-02-19T01:17:05.844Z,39.26
2019-02-19T01:19:37.896Z,38.97
2019-02-19T01:22:10.324Z,38.93
2019-02-19T01:24:42.480Z,39.18
2019-02-19T01:27:14.911Z,38.98
2019-02-19T01:29:46.819Z,38.98
2019-02-19T01:32:19.055Z,39.36
2019-02-19T01:34:51.080Z,39.33
2019-02-19T01:37:23.339Z,38.54
2019-02-19T01:39:55.327Z,38.09
2019-02-19T01:42:27.931Z,38.99
2019-02-19T01:45:00.355Z,39.20
2019-02-19T01:47:32.932Z,39.12
2019-02-19T01:50:05.540Z,38.77
2019-02-19T01:52:37.893Z,38.79
2019-02-19T01:55:10.465Z,39.10
2019-02-19T01:57:42.822Z,38.69
2019-02-19T02:00:15.336Z,39.38
2019-02-19T02:02:47.852Z,38.94
2019-02-19T02:05:19.869Z,39.26
2019-02-19T02:07:52.857Z,39.20
2019-02-19T02:10:24.844Z,39.15
2019-02-19T02:12:56.893Z,39.25
2019-02-19T04:31:45.838Z,38.94
2019-02-19T04:34:18.874Z,39.74
2019-02-19T04:36:50.884Z,39.78
2019-02-19T04:39:23.335Z,39.50
2019-02-19T04:41:55.391Z,39.60
2019-02-19T04:44:27.638Z,39.86
2019-02-19T04:46:58.667Z,39.55
2019-02-19T04:49:30.882Z,39.40
2019-02-19T04:52:03.319Z,39.26
2019-02-19T04:54:36.008Z,39.57
2019-02-19T04:57:07.925Z,39.77
2019-02-19T04:59:40.157Z,39.43
2019-02-19T05:02:12.862Z,39.02
2019-02-19T05:04:44.832Z,39.27
2019-02-19T05:07:16.901Z,39.69
2019-02-19T05:09:49.578Z,39.55
2019-02-19T05:12:21.812Z,39.53
2019-02-19T05:14:54.022Z,39.53
2019-02-19T05:17:26.407Z,39.16
2019-02-19T05:19:58.923Z,39.40
2019-02-19T05:22:31.456Z,38.63
2019-02-19T05:25:04.341Z,39.86
2019-02-19T05:27:36.846Z,39.37
2019-02-19T05:30:09.611Z,39.08
2019-02-19T05:32:40.759Z,39.26
2019-02-19T05:35:11.719Z,39.26
2019-02-19T05:37:44.054Z,39.54
2019-02-19T05:40:16.818Z,39.36
2019-02-19T05:42:49.101Z,39.29
2019-02-19T05:45:21.391Z,39.52
2019-02-19T05:47:53.811Z,39.28
2019-02-19T05:50:26.339Z,39.13
2019-02-19T05:52:58.622Z,39.08
2019-02-19T05:55:30.903Z,39.30
2019-02-19T05:58:03.029Z,39.30
2019-02-19T06:00:35.418Z,39.01
2019-02-19T06:03:07.812Z,39.42
2019-02-19T06:05:40.325Z,39.16
2019-02-19T06:08:12.867Z,39.39
2019-02-19T06:10:44.991Z,39.14
2019-02-19T06:13:17.072Z,38.57
2019-02-19T06:15:49.361Z,39.29
2019-02-19T06:18:21.942Z,39.50
2019-02-19T06:20:53.885Z,39.02
2019-02-19T06:23:25.903Z,39.57
2019-02-19T06:25:58.120Z,39.51
2019-02-19T06:28:30.361Z,39.21
2019-02-19T06:31:02.873Z,39.55
2019-02-19T06:33:34.809Z,39.18
2019-02-19T06:36:06.912Z,38.94
2019-02-19T06:38:38.832Z,37.91
2019-02-19T06:41:10.872Z,39.41
2019-02-19T06:43:42.869Z,39.51
2019-02-19T06:46:15.054Z,38.83
2019-02-19T06:48:47.318Z,39.47
2019-02-19T06:51:19.866Z,39.50
2019-02-19T06:53:51.830Z,39.15
2019-02-19T06:56:23.864Z,39.34
2019-02-19T06:58:55.811Z,38.80
2019-02-19T07:01:52.511Z,39.42
2019-02-19T07:04:28.791Z,39.39
2019-02-19T07:07:01.574Z,39.39
2019-02-19T07:09:33.832Z,39.10
2019-02-19T07:12:05.858Z,39.10
2019-02-19T07:14:38.100Z,38.95
2019-02-19T07:17:15.771Z,38.71
2019-02-19T07:19:43.853Z,38.34
2019-02-19T07:22:16.020Z,38.99
2019-02-19T07:24:48.842Z,38.53
2019-02-19T07:27:20.821Z,38.64
2019-02-19T07:29:52.844Z,39.15
2019-02-19T07:32:24.829Z,38.86
2019-02-19T07:34:56.896Z,39.14
2019-02-19T07:37:29.336Z,38.76
2019-02-19T07:40:01.823Z,38.54
2019-02-19T07:42:34.323Z,38.79
2019-02-19T07:45:06.824Z,38.70
2019-02-19T07:47:38.861Z,38.87
2019-02-19T07:50:11.884Z,38.51
2019-02-19T07:52:43.823Z,38.69
2019-02-19T07:55:15.859Z,38.78
2019-02-19T07:57:47.831Z,38.68
2019-02-19T08:00:19.847Z,38.46
2019-02-19T08:02:51.867Z,38.98
2019-02-19T08:05:24.333Z,38.71
2019-02-19T08:07:56.576Z,38.80
2019-02-19T08:10:28.807Z,38.53
2019-02-19T08:13:01.328Z,38.53
2019-02-19T08:15:33.408Z,38.76
2019-02-19T08:18:05.486Z,37.48
2019-02-19T08:20:37.568Z,38.76
2019-02-19T08:23:09.881Z,38.53
2019-02-19T08:25:41.823Z,38.53
2019-02-19T08:28:13.837Z,38.70
2019-02-19T08:30:45.834Z,38.52
2019-02-19T08:33:17.802Z,37.98
2019-02-19T08:35:49.811Z,37.20
2019-02-19T08:38:22.808Z,38.30
2019-02-19T08:40:54.923Z,38.20
2019-02-19T08:43:27.085Z,37.94
2019-02-19T08:45:59.335Z,38.15
2019-02-19T08:48:31.891Z,37.86
2019-02-19T08:51:06.736Z,38.05
2019-02-19T08:53:37.736Z,37.87
2019-02-19T08:56:08.657Z,38.11
2019-02-19T08:58:41.383Z,37.66
2019-02-19T09:01:13.477Z,37.66
2019-02-19T09:03:45.835Z,38.19
2019-02-19T09:06:17.845Z,37.17
2019-02-19T09:08:49.834Z,38.09
2019-02-19T09:11:22.839Z,37.22
2019-02-19T09:13:55.017Z,37.58
2019-02-19T09:16:26.832Z,38.23
2019-02-19T09:18:59.312Z,38.59
2019-02-19T09:21:31.314Z,38.28
2019-02-19T09:24:09.183Z,38.51
2019-02-19T09:26:36.872Z,38.33
2019-02-19T09:29:09.371Z,38.21
2019-02-19T09:31:41.828Z,38.05
2019-02-19T09:34:14.050Z,37.93
2019-02-19T09:36:45.883Z,38.03
2019-02-19T09:39:18.316Z,38.17
2019-02-19T09:41:50.287Z,38.03
2019-02-19T09:44:22.445Z,37.85
2019-02-19T09:46:54.493Z,37.93
2019-02-19T09:49:26.520Z,37.93
2019-02-19T09:51:58.534Z,37.67
2019-02-19T09:54:30.812Z,37.90
2019-02-19T09:57:03.044Z,37.93
2019-02-19T09:59:36.471Z,37.95
2019-02-19T10:02:08.803Z,37.97
2019-02-19T10:04:40.810Z,37.71
2019-02-19T10:07:12.915Z,38.14
2019-02-19T10:09:47.918Z,38.12
2019-02-19T10:12:20.443Z,38.04
2019-02-19T10:14:55.659Z,37.54
2019-02-19T10:17:26.685Z,37.81
2019-02-19T10:19:58.822Z,37.50
2019-02-19T10:22:30.817Z,38.00
2019-02-19T10:25:02.879Z,38.16
2019-02-19T10:27:34.841Z,38.06
2019-02-19T10:30:08.993Z,37.88
2019-02-19T10:32:40.842Z,38.15
2019-02-19T10:35:13.922Z,38.03
2019-02-19T10:37:47.386Z,38.16
2019-02-19T10:40:19.516Z,37.85
2019-02-19T10:42:51.847Z,37.99
2019-02-19T10:45:24.415Z,38.19
2019-02-19T10:47:56.875Z,38.15
2019-02-19T10:50:29.318Z,38.20
2019-02-19T10:53:01.332Z,37.92
2019-02-19T10:55:33.337Z,38.22
2019-02-19T10:58:05.854Z,38.07
2019-02-19T11:00:37.782Z,37.98
2019-02-19T11:03:09.856Z,37.61
2019-02-19T11:05:41.859Z,37.63
2019-02-19T11:08:13.678Z,37.88
2019-02-19T11:10:44.567Z,37.67
2019-02-19T11:13:16.886Z,37.57
2019-02-19T11:15:48.851Z,37.57
2019-02-19T11:18:28.050Z,37.62
2019-02-19T11:20:58.367Z,37.93
2019-02-19T11:23:31.102Z,38.09
2019-02-19T11:26:03.790Z,38.10
2019-02-19T11:28:35.862Z,37.77
2019-02-19T11:31:07.869Z,38.01
2019-02-19T11:33:39.874Z,37.64
2019-02-19T11:36:11.851Z,37.92
2019-02-19T11:38:44.333Z,37.92
2019-02-19T11:41:17.339Z,37.94
2019-02-19T11:43:50.100Z,37.72
2019-02-19T11:46:22.883Z,37.82
2019-02-19T11:48:56.195Z,37.66
2019-02-19T11:51:28.894Z,37.83
2019-02-19T11:54:01.291Z,37.52
2019-02-19T11:56:33.897Z,37.95
2019-02-19T11:59:06.038Z,37.74
2019-02-19T12:01:38.325Z,37.87
2019-02-19T12:04:10.843Z,38.06
2019-02-19T12:06:43.037Z,38.11
2019-02-19T12:09:15.627Z,37.91
2019-02-19T12:11:47.856Z,37.78
2019-02-19T12:14:20.321Z,37.78
2019-02-19T12:16:52.919Z,37.80
2019-02-19T12:19:24.878Z,37.86
2019-02-19T12:21:57.336Z,37.93
2019-02-19T12:24:29.840Z,37.90
2019-02-19T12:27:02.496Z,37.84
2019-02-19T12:29:35.342Z,37.71
2019-02-19T12:32:07.867Z,37.65
2019-02-19T12:34:40.314Z,37.61
2019-02-19T12:37:13.322Z,37.55
2019-02-19T12:39:45.885Z,37.65
2019-02-19T12:42:18.041Z,37.57
2019-02-19T12:44:51.334Z,37.65
2019-02-19T12:47:23.816Z,37.78
2019-02-19T12:49:56.320Z,37.78
2019-02-19T12:52:28.815Z,37.77
2019-02-19T12:55:00.863Z,37.83
2019-02-19T12:57:33.113Z,37.86
2019-02-19T13:00:06.393Z,37.92
2019-02-19T13:02:38.575Z,37.78
2019-02-19T13:05:13.104Z,37.89
2019-02-19T13:07:46.994Z,37.89
2019-02-19T13:10:19.866Z,38.02
2019-02-19T13:12:51.849Z,37.69
2019-02-19T13:15:23.842Z,37.65
2019-02-19T13:17:56.292Z,37.84
2019-02-19T13:20:29.346Z,37.90
2019-02-19T13:23:01.876Z,37.94
2019-02-19T13:25:33.806Z,37.99
2019-02-19T13:28:05.845Z,37.59
2019-02-19T13:30:38.279Z,37.06
2019-02-19T13:33:10.818Z,37.56
2019-02-19T13:35:42.869Z,37.73
2019-02-19T13:38:14.858Z,37.77
2019-02-19T13:40:46.835Z,37.59
2019-02-19T13:43:18.828Z,37.95
2019-02-19T13:45:50.869Z,38.03
2019-02-19T13:48:22.839Z,37.94
2019-02-19T13:50:54.870Z,37.95
2019-02-19T13:53:32.321Z,37.94
2019-02-19T13:56:05.456Z,37.69
2019-02-19T13:58:38.119Z,37.51
2019-02-19T14:01:10.335Z,38.05
2019-02-19T14:03:42.836Z,38.05
2019-02-19T14:06:14.851Z,38.11
2019-02-19T14:08:46.825Z,37.95
2019-02-19T14:11:18.818Z,37.92
2019-02-19T14:14:12.290Z,38.16
2019-02-19T14:17:03.391Z,38.06
2019-02-19T14:20:06.634Z,37.88
2019-02-19T14:22:58.026Z,38.32
2019-02-19T14:25:57.662Z,38.32
2019-02-19T14:28:48.319Z,38.24
2019-02-19T14:31:48.634Z,38.24
2019-02-19T14:34:41.322Z,38.37
2019-02-19T14:37:42.101Z,38.37
2019-02-19T14:40:31.711Z,38.40
2019-02-19T14:43:16.521Z,37.82
2019-02-19T14:46:10.331Z,38.47
2019-02-19T14:49:16.816Z,38.38
2019-02-19T14:52:25.935Z,38.29
2019-02-19T14:55:11.842Z,38.35
2019-02-19T14:58:00.906Z,38.18
2019-02-19T15:00:55.048Z,38.17
2019-02-19T15:03:44.507Z,37.96
2019-02-19T15:06:34.464Z,34.25
2019-02-19T15:09:23.115Z,34.25
2019-02-19T15:12:13.827Z,33.99
2019-02-19T15:15:23.363Z,33.67
2019-02-19T15:18:20.408Z,33.67
2019-02-19T15:21:00.329Z,33.91
2019-02-19T15:23:43.802Z,32.74
2019-02-19T15:26:32.314Z,33.38
2019-02-19T15:29:26.557Z,33.50
2019-02-19T15:32:20.481Z,33.43
2019-02-19T15:35:14.365Z,32.61
2019-02-19T15:38:23.655Z,32.42
2019-02-19T15:41:17.335Z,32.91
2019-02-19T15:43:57.445Z,32.91
2019-02-19T15:46:47.001Z,32.48
2019-02-19T15:49:37.425Z,32.49
2019-02-19T15:52:35.903Z,32.88
2019-02-19T15:55:42.339Z,32.64
2019-02-19T15:58:27.663Z,32.79
2019-02-19T16:01:17.048Z,33.78
2019-02-19T16:03:58.527Z,33.78
2019-02-19T16:06:51.956Z,34.01
2019-02-19T16:09:31.531Z,34.33
2019-02-19T16:12:22.921Z,34.06
2019-02-19T16:15:16.457Z,34.10
2019-02-19T16:18:20.309Z,34.33
2019-02-19T16:21:14.433Z,34.33
2019-02-19T16:24:04.448Z,34.57
2019-02-19T16:26:55.851Z,34.90
2019-02-19T16:29:59.636Z,34.90
2019-02-19T16:32:40.891Z,35.34
2019-02-19T16:35:23.861Z,35.34
2019-02-19T16:38:20.530Z,35.58
2019-02-19T16:41:29.619Z,35.03
2019-02-19T16:44:06.878Z,35.83
2019-02-19T16:46:45.335Z,35.83
2019-02-19T16:49:45.483Z,35.72
2019-02-19T16:52:35.412Z,36.01
2019-02-19T16:55:26.817Z,35.83
2019-02-19T16:58:23.330Z,36.11
2019-02-19T17:01:13.893Z,36.58
2019-02-19T17:04:03.461Z,36.95
2019-02-19T17:07:00.083Z,36.52
2019-02-19T17:09:39.036Z,35.37
2019-02-19T17:12:21.067Z,34.71
2019-02-19T17:15:24.321Z,35.10
2019-02-19T17:18:27.885Z,34.57
2019-02-19T17:21:21.726Z,34.66
2019-02-19T17:24:19.018Z,34.66
2019-02-19T17:27:19.670Z,34.56
2019-02-19T17:31:41.249Z,35.01
2019-02-19T17:34:41.218Z,35.06
2019-02-19T17:37:32.810Z,35.07
2019-02-19T17:40:16.451Z,34.42
2019-02-19T17:43:07.363Z,35.99
2019-02-19T17:45:46.824Z,36.24
2019-02-19T17:48:29.475Z,36.63
2019-02-19T17:51:16.805Z,37.03
2019-02-19T17:54:10.014Z,36.31
2019-02-19T17:56:56.861Z,37.35
2019-02-19T17:59:51.046Z,36.83
2019-02-19T18:02:37.332Z,37.69
2019-02-19T18:05:37.426Z,37.62
2019-02-19T18:08:28.455Z,37.36
2019-02-19T18:11:09.450Z,38.19
2019-02-19T18:14:05.918Z,35.94
2019-02-19T18:16:59.448Z,35.24
2019-02-19T18:19:31.847Z,34.78
2019-02-19T18:22:03.852Z,34.62
2019-02-19T18:24:36.116Z,34.25
2019-02-19T18:27:08.927Z,34.21
2019-02-19T18:29:41.107Z,34.08
2019-02-19T18:32:13.842Z,34.23
2019-02-19T18:34:46.316Z,34.93
2019-02-19T18:37:18.849Z,34.78
2019-02-19T18:39:50.888Z,34.61
2019-02-19T18:42:23.321Z,35.34
2019-02-19T18:44:56.860Z,34.74
2019-02-19T18:47:29.324Z,35.56
2019-02-19T18:50:02.065Z,35.50
2019-02-19T18:52:34.317Z,35.15
2019-02-19T18:55:06.931Z,35.42
2019-02-19T18:57:39.012Z,35.64
2019-02-19T19:00:12.895Z,35.30
2019-02-19T19:02:45.339Z,36.21
2019-02-19T19:05:17.869Z,35.91
2019-02-19T19:07:49.873Z,36.43
2019-02-19T19:10:23.023Z,35.70
2019-02-19T19:12:55.854Z,35.56
2019-02-19T19:15:28.320Z,36.80
2019-02-19T19:18:00.862Z,36.26
2019-02-19T19:20:32.829Z,35.60
2019-02-19T19:23:04.849Z,37.38
2019-02-19T19:25:36.863Z,36.71
2019-02-19T19:28:09.493Z,37.12
2019-02-19T19:30:41.879Z,37.05
2019-02-19T19:33:17.275Z,37.05
2019-02-19T19:35:50.130Z,37.28
2019-02-19T19:38:22.347Z,37.93
2019-02-19T19:40:54.839Z,38.01
2019-02-19T19:43:26.837Z,37.23
2019-02-19T19:45:58.839Z,37.41
2019-02-19T19:48:30.862Z,36.33
2019-02-19T19:51:02.863Z,35.39
2019-02-19T19:53:35.323Z,34.93
2019-02-19T19:56:07.843Z,34.41
2019-02-19T19:58:39.863Z,34.14
2019-02-19T20:01:11.814Z,33.52
2019-02-19T20:03:43.882Z,32.92
2019-02-19T20:06:15.877Z,33.89
2019-02-19T20:08:47.824Z,33.86
2019-02-19T20:11:20.417Z,33.80
2019-02-19T20:13:52.815Z,33.90
2019-02-19T20:16:24.815Z,33.48
2019-02-19T20:18:56.807Z,34.78
2019-02-19T20:21:33.339Z,34.45
2019-02-19T20:24:05.517Z,33.80
2019-02-19T20:26:37.809Z,34.03
2019-02-19T20:29:09.861Z,35.08
2019-02-19T20:31:41.874Z,35.08
2019-02-19T20:34:14.420Z,35.22
2019-02-19T20:36:47.299Z,34.56
2019-02-19T20:39:19.893Z,34.92
2019-02-19T20:41:51.854Z,34.47
2019-02-19T20:44:24.323Z,34.31
2019-02-19T20:46:56.871Z,35.18
2019-02-19T20:49:29.310Z,35.88
2019-02-19T20:52:01.681Z,34.71
2019-02-19T20:54:33.855Z,35.41
2019-02-19T20:57:07.883Z,35.41
2019-02-19T20:59:40.368Z,34.73
2019-02-19T21:02:12.908Z,35.72
2019-02-19T21:04:44.905Z,36.74
2019-02-19T21:07:17.356Z,36.34
2019-02-19T21:09:49.868Z,37.11
2019-02-19T21:12:22.372Z,37.42
2019-02-19T21:14:55.808Z,37.39
2019-02-19T21:17:28.444Z,37.54
2019-02-19T21:20:00.853Z,37.35
2019-02-19T21:22:33.877Z,37.37
2019-02-19T21:25:06.327Z,37.53
2019-02-19T21:27:39.041Z,37.67
2019-02-19T21:30:12.689Z,38.13
2019-02-19T21:32:44.832Z,38.15
2019-02-19T21:35:17.360Z,38.17
2019-02-19T21:37:50.283Z,38.43
2019-02-19T21:40:22.828Z,38.17
2019-02-19T21:42:54.837Z,38.12
2019-02-19T21:45:27.074Z,38.34
2019-02-19T21:47:59.841Z,38.30
2019-02-19T21:50:32.860Z,37.66
2019-02-19T21:53:05.839Z,38.29
2019-02-19T21:55:38.328Z,38.28
2019-02-19T21:58:10.860Z,37.85
2019-02-19T22:00:43.011Z,38.61
2019-02-19T22:03:15.322Z,38.82
2019-02-19T22:05:48.518Z,38.69
2019-02-19T22:08:21.020Z,38.60
2019-02-19T22:10:53.997Z,38.81
2019-02-19T22:13:26.565Z,38.50
2019-02-19T22:15:58.800Z,38.35
2019-02-19T22:18:30.899Z,38.60
2019-02-19T22:22:10.370Z,38.99
2019-02-19T22:24:42.905Z,38.98
2019-02-19T22:27:14.903Z,38.89
2019-02-19T22:29:46.830Z,38.92
2019-02-19T22:32:20.599Z,38.92
2019-02-19T22:34:52.863Z,39.06
2019-02-19T22:37:24.875Z,39.06
2019-02-19T22:39:56.846Z,38.88
2019-02-19T22:42:28.892Z,38.83
2019-02-19T22:45:01.564Z,39.05
2019-02-19T22:47:33.812Z,39.21
2019-02-19T22:50:07.056Z,39.04
2019-02-19T22:52:40.331Z,39.19
2019-02-19T22:55:33.473Z,38.84
2019-02-19T22:58:05.870Z,38.96
2019-02-19T23:00:57.923Z,38.99
2019-02-19T23:03:29.884Z,39.21
2019-02-19T23:06:01.863Z,39.32
2019-02-19T23:08:34.029Z,39.27
2019-02-19T23:11:06.348Z,39.56
2019-02-19T23:13:38.922Z,39.40
2019-02-19T23:16:11.328Z,39.64
2019-02-19T23:18:43.883Z,39.27
2019-02-19T23:21:15.885Z,39.18
2019-02-19T23:23:47.898Z,39.40
2019-02-19T23:26:20.852Z,39.73
2019-02-19T23:28:53.324Z,39.46
2019-02-19T23:31:26.014Z,39.41
2019-02-19T23:33:58.367Z,39.65
2019-02-19T23:36:42.559Z,39.29
2019-02-19T23:39:14.848Z,39.94
2019-02-19T23:41:46.856Z,39.31
2019-02-19T23:44:19.320Z,39.51
2019-02-19T23:46:54.778Z,39.82
2019-02-19T23:49:26.841Z,40.19
2019-02-19T23:51:59.811Z,39.54
2019-02-19T23:54:31.885Z,39.87
2019-02-19T23:57:04.025Z,39.88
2019-02-19T23:59:37.017Z,40.23
